Time;durP1;ratioP1;P1;durP2;ratioP2;P2;SDS_P1;SDS_P2;PMS_P1;PMS_P2;Temp;Humidity;BMP_temperature;BMP_pressure;BME280_temperature;BME280_humidity;BME280_pressure;Samples;Min_cycle;Max_cycle;Signal;HPM_P1;HPM_P2
2022/01/15 00:01:33;;;;;;;7.10;4.83;;;;;;;-2.07;100.00;95856.59;5067774;28;20216;-74
2022/01/15 00:04:19;;;;;;;9.20;5.20;;;;;;;-2.49;100.00;95841.25;5085485;28;20213;-74
2022/01/15 00:07:05;;;;;;;7.23;5.07;;;;;;;-2.42;100.00;95842.50;5107585;28;20203;-74
2022/01/15 00:09:52;;;;;;;10.00;5.20;;;;;;;-2.37;100.00;95815.47;5093642;28;20223;-74
2022/01/15 00:12:40;;;;;;;8.03;5.60;;;;;;;-2.25;100.00;95837.53;5094348;28;20192;-74
2022/01/15 00:15:33;;;;;;;8.20;5.70;;;;;;;-2.36;100.00;95843.78;5101008;28;20654;-74
2022/01/15 00:18:28;;;;;;;8.43;6.27;;;;;;;-2.25;100.00;95844.75;5090889;28;20233;-74
2022/01/15 00:21:15;;;;;;;10.50;5.90;;;;;;;-2.35;100.00;95826.59;5081960;28;20621;-74
2022/01/15 00:24:02;;;;;;;11.50;5.67;;;;;;;-2.21;100.00;95819.66;5074194;28;20209;-74
2022/01/15 00:26:48;;;;;;;7.77;5.57;;;;;;;-2.46;100.00;95831.72;5073026;28;20209;-74
2022/01/15 00:29:34;;;;;;;9.30;6.03;;;;;;;-2.17;100.00;95817.03;5088541;28;20622;-75
2022/01/15 00:32:20;;;;;;;11.13;6.43;;;;;;;-2.44;100.00;95812.69;5086605;28;20207;-75
2022/01/15 00:35:08;;;;;;;9.23;6.63;;;;;;;-2.11;100.00;95813.72;5070841;28;20194;-75
2022/01/15 00:37:54;;;;;;;9.13;5.67;;;;;;;-2.27;100.00;95818.38;5087798;28;20224;-75
2022/01/15 00:40:39;;;;;;;8.83;6.20;;;;;;;-2.51;100.00;95816.75;5089887;28;20213;-75
2022/01/15 00:43:25;;;;;;;7.60;5.50;;;;;;;-2.65;100.00;95807.66;5072834;28;20216;-75
2022/01/15 00:46:11;;;;;;;6.53;4.90;;;;;;;-2.75;100.00;95803.63;5073988;28;20216;-75
2022/01/15 00:48:57;;;;;;;8.33;5.37;;;;;;;-2.81;100.00;95809.59;5074171;28;20651;-74
2022/01/15 00:51:43;;;;;;;8.00;5.60;;;;;;;-2.51;100.00;95807.94;5088824;28;20432;-75
2022/01/15 00:54:29;;;;;;;7.60;5.50;;;;;;;-2.51;100.00;95808.72;5084738;28;20209;-75
2022/01/15 00:57:15;;;;;;;8.67;5.93;;;;;;;-2.44;100.00;95805.41;5087078;28;20204;-75
2022/01/15 01:00:01;;;;;;;9.33;6.27;;;;;;;-2.45;100.00;95809.22;5085759;28;20216;-75
2022/01/15 01:02:47;;;;;;;8.13;6.13;;;;;;;-2.52;100.00;95804.50;5092866;28;20681;-75
2022/01/15 01:05:33;;;;;;;8.93;5.67;;;;;;;-2.52;100.00;95807.19;5070795;28;20228;-75
2022/01/15 01:08:19;;;;;;;7.43;4.90;;;;;;;-2.55;100.00;95817.81;5098871;28;20223;-75
2022/01/15 01:11:11;;;;;;;10.93;6.67;;;;;;;-2.54;100.00;95817.44;5073829;28;20228;-74
2022/01/15 01:20:07;;;;;;;10.97;6.50;;;;;;;-2.73;100.00;95805.94;5093595;28;20217;-74
2022/01/15 01:25:44;;;;;;;6.87;5.20;;;;;;;-2.74;100.00;95817.78;5093142;28;20673;-74
2022/01/15 01:28:35;;;;;;;8.43;5.87;;;;;;;-2.66;100.00;95801.53;5086159;28;20292;-74
2022/01/15 01:39:19;;;;;;;7.80;5.70;;;;;;;-2.68;100.00;95795.75;5043655;28;20193;-74
2022/01/15 01:42:29;;;;;;;7.73;5.77;;;;;;;-2.68;100.00;95781.66;5070539;28;21352;-74
2022/01/15 01:45:15;;;;;;;11.03;6.40;;;;;;;-2.81;100.00;95793.56;5071783;28;20717;-75
2022/01/15 01:48:00;;;;;;;7.70;5.97;;;;;;;-2.70;100.00;95776.63;5064807;28;20207;-75
2022/01/15 01:50:46;;;;;;;9.57;6.20;;;;;;;-2.67;100.00;95781.28;5078842;28;20649;-74
2022/01/15 01:53:35;;;;;;;8.60;6.17;;;;;;;-2.51;100.00;95773.97;5071850;28;20197;-74
2022/01/15 01:56:21;;;;;;;7.10;5.87;;;;;;;-2.53;100.00;95781.56;5057617;28;20214;-73
2022/01/15 01:59:08;;;;;;;8.43;5.30;;;;;;;-2.42;100.00;95773.75;5080872;28;20268;-76
2022/01/15 02:01:54;;;;;;;9.17;6.60;;;;;;;-2.64;100.00;95769.88;5071589;28;20285;-73
2022/01/15 02:04:40;;;;;;;11.33;5.97;;;;;;;-2.35;100.00;95778.47;5047710;28;20221;-74
2022/01/15 02:07:26;;;;;;;9.27;6.00;;;;;;;-2.29;100.00;95771.72;5059141;28;20221;-74
2022/01/15 02:10:16;;;;;;;8.10;6.00;;;;;;;-2.38;100.00;95774.59;5066427;28;20629;-75
2022/01/15 02:13:02;;;;;;;7.97;6.10;;;;;;;-2.49;100.00;95769.03;5073970;28;20194;-73
2022/01/15 02:15:48;;;;;;;7.77;5.63;;;;;;;-2.64;100.00;95753.06;5070967;28;20240;-73
2022/01/15 02:18:35;;;;;;;8.90;6.10;;;;;;;-2.57;100.00;95758.56;5071540;28;20276;-73
2022/01/15 02:24:26;;;;;;;9.43;7.03;;;;;;;-2.82;100.00;95741.25;5075994;28;20236;-74
2022/01/15 02:27:12;;;;;;;11.27;6.40;;;;;;;-2.94;100.00;95750.19;5072957;28;20213;-73
2022/01/15 02:30:00;;;;;;;13.73;7.37;;;;;;;-2.63;100.00;95743.94;5074977;28;20194;-75
2022/01/15 02:32:45;;;;;;;8.40;6.40;;;;;;;-2.89;100.00;95739.22;5060657;28;20201;-74
2022/01/15 02:35:32;;;;;;;8.53;6.50;;;;;;;-2.78;100.00;95739.41;5074140;28;20643;-74
2022/01/15 02:38:18;;;;;;;10.80;6.60;;;;;;;-2.79;100.00;95733.31;5071295;28;20207;-75
2022/01/15 02:41:05;;;;;;;9.10;6.00;;;;;;;-2.68;100.00;95728.19;5067124;28;20206;-75
2022/01/15 02:43:51;;;;;;;8.73;6.33;;;;;;;-2.81;100.00;95727.53;5061734;28;20229;-74
2022/01/15 02:49:43;;;;;;;8.80;6.37;;;;;;;-3.43;100.00;95725.06;5038655;28;20190;-76
2022/01/15 02:52:29;;;;;;;9.90;7.27;;;;;;;-3.38;100.00;95721.34;5058286;28;20200;-75
2022/01/15 02:55:15;;;;;;;10.93;7.10;;;;;;;-3.30;100.00;95723.81;5066129;28;20252;-74
2022/01/15 02:58:01;;;;;;;9.63;6.67;;;;;;;-3.48;100.00;95712.00;5069679;28;20193;-74
2022/01/15 03:00:47;;;;;;;9.40;6.47;;;;;;;-3.29;100.00;95704.00;5056417;28;20204;-74
2022/01/15 03:03:34;;;;;;;9.47;7.10;;;;;;;-3.11;100.00;95699.03;5070945;28;20210;-74
2022/01/15 03:06:23;;;;;;;9.13;6.67;;;;;;;-3.13;100.00;95714.63;5056170;28;20313;-73
2022/01/15 03:09:09;;;;;;;8.43;6.63;;;;;;;-2.92;100.00;95707.81;5058525;28;20745;-73
2022/01/15 03:12:01;;;;;;;8.67;6.90;;;;;;;-2.80;100.00;95705.03;5056231;28;20255;-74
2022/01/15 03:14:48;;;;;;;9.30;6.57;;;;;;;-2.89;100.00;95706.38;5053123;28;20241;-72
2022/01/15 03:17:35;;;;;;;11.50;6.87;;;;;;;-3.06;100.00;95696.88;5065229;28;20229;-75
2022/01/15 03:20:20;;;;;;;10.63;6.97;;;;;;;-2.89;100.00;95691.13;5055247;28;20618;-75
2022/01/15 03:23:06;;;;;;;10.03;6.77;;;;;;;-3.00;100.00;95689.31;5069780;28;20201;-74
2022/01/15 03:25:52;;;;;;;7.97;6.27;;;;;;;-2.97;100.00;95697.41;5070414;28;20710;-74
2022/01/15 03:28:38;;;;;;;10.70;6.87;;;;;;;-2.98;100.00;95684.41;5056508;28;20198;-75
2022/01/15 03:31:24;;;;;;;9.43;6.53;;;;;;;-2.93;100.00;95686.81;5072028;28;20190;-74
2022/01/15 03:34:10;;;;;;;13.67;6.63;;;;;;;-3.27;100.00;95679.59;5055367;28;20451;-75
2022/01/15 03:36:57;;;;;;;8.40;6.27;;;;;;;-3.22;100.00;95684.66;5064698;28;20251;-75
2022/01/15 03:39:44;;;;;;;9.23;6.97;;;;;;;-3.14;100.00;95687.16;5040543;28;20692;-75
2022/01/15 03:42:30;;;;;;;9.73;6.90;;;;;;;-3.49;100.00;95680.28;5061483;28;20198;-75
2022/01/15 03:45:16;;;;;;;11.00;7.63;;;;;;;-3.45;100.00;95683.81;5061859;28;20262;-74
2022/01/15 03:48:02;;;;;;;10.50;7.40;;;;;;;-3.49;100.00;95678.38;5049854;28;20271;-74
2022/01/15 03:50:48;;;;;;;10.07;6.73;;;;;;;-3.54;100.00;95672.53;5076277;28;20326;-76
2022/01/15 03:53:34;;;;;;;7.80;6.63;;;;;;;-3.76;100.00;95653.41;5065891;28;20197;-74
2022/01/15 03:56:20;;;;;;;11.33;7.53;;;;;;;-3.45;100.00;95675.81;5078158;28;20221;-74
2022/01/15 03:59:06;;;;;;;10.47;6.90;;;;;;;-3.54;100.00;95672.53;5057045;28;20560;-73
2022/01/15 04:01:52;;;;;;;10.20;7.00;;;;;;;-3.70;100.00;95668.00;5070209;28;20209;-73
2022/01/15 04:04:38;;;;;;;13.30;6.97;;;;;;;-3.83;100.00;95676.47;5047559;28;20209;-73
2022/01/15 04:07:23;;;;;;;11.20;6.93;;;;;;;-3.77;100.00;95672.44;5059082;28;20201;-75
2022/01/15 04:10:11;;;;;;;9.17;6.23;;;;;;;-3.59;100.00;95664.81;5067130;28;20185;-73
2022/01/15 04:12:57;;;;;;;8.03;6.07;;;;;;;-3.37;100.00;95666.81;5067235;28;20200;-73
2022/01/15 04:15:43;;;;;;;11.90;6.73;;;;;;;-3.45;100.00;95668.56;5068408;28;20587;-74
2022/01/15 04:18:35;;;;;;;10.23;6.90;;;;;;;-3.64;100.00;95673.88;5056308;28;20202;-74
2022/01/15 04:21:21;;;;;;;13.00;8.07;;;;;;;-3.31;100.00;95668.09;5046570;28;20194;-74
2022/01/15 04:24:07;;;;;;;15.27;9.83;;;;;;;-3.31;100.00;95674.19;5070214;28;20588;-74
2022/01/15 04:26:53;;;;;;;13.90;8.93;;;;;;;-3.12;100.00;95666.19;5039534;28;20693;-74
2022/01/15 04:29:39;;;;;;;12.63;8.03;;;;;;;-3.08;100.00;95663.59;5064800;28;20193;-76
2022/01/15 04:32:25;;;;;;;10.37;7.57;;;;;;;-3.23;100.00;95661.78;5063623;28;20784;-75
2022/01/15 04:35:11;;;;;;;11.17;7.90;;;;;;;-3.30;100.00;95664.28;5062180;28;20317;-74
2022/01/15 04:38:01;;;;;;;10.73;7.70;;;;;;;-3.26;100.00;95654.47;5054341;28;20666;-75
2022/01/15 04:40:47;;;;;;;9.30;7.10;;;;;;;-3.28;100.00;95654.03;5061994;28;20611;-74
2022/01/15 04:43:33;;;;;;;9.40;6.27;;;;;;;-3.74;100.00;95647.72;5054159;28;20217;-74
2022/01/15 04:46:19;;;;;;;9.27;6.73;;;;;;;-3.69;100.00;95666.13;5068465;28;20244;-73
2022/01/15 04:49:06;;;;;;;11.63;7.77;;;;;;;-3.60;100.00;95640.03;5067800;28;20705;-74
2022/01/15 04:51:51;;;;;;;10.63;7.47;;;;;;;-3.60;100.00;95655.25;5067213;28;20344;-75
2022/01/15 04:54:37;;;;;;;11.63;7.50;;;;;;;-3.78;100.00;95649.53;5067048;28;20690;-74
2022/01/15 04:57:23;;;;;;;10.93;8.00;;;;;;;-3.35;100.00;95651.22;5064691;28;20190;-75
2022/01/15 05:00:13;;;;;;;10.90;8.10;;;;;;;-3.62;100.00;95650.28;5053060;28;20228;-73
2022/01/15 05:03:00;;;;;;;13.87;8.60;;;;;;;-3.68;100.00;95648.22;5069850;28;20200;-74
2022/01/15 05:05:47;;;;;;;12.60;8.50;;;;;;;-3.31;100.00;95647.50;5065975;28;21628;-74
2022/01/15 05:08:33;;;;;;;11.97;7.57;;;;;;;-3.19;100.00;95655.38;5086004;28;20783;-74
2022/01/15 05:11:32;;;;;;;14.23;7.90;;;;;;;-3.43;100.00;95652.97;5082113;28;20215;-74
2022/01/15 05:14:18;;;;;;;10.23;6.70;;;;;;;-3.59;100.00;95664.81;5090559;28;20201;-74
2022/01/15 05:17:04;;;;;;;10.07;7.97;;;;;;;-3.54;100.00;95673.31;5097620;28;20199;-73
2022/01/15 05:19:50;;;;;;;11.67;7.83;;;;;;;-3.39;100.00;95651.13;5074096;28;20201;-73
2022/01/15 05:22:36;;;;;;;10.53;7.67;;;;;;;-3.54;100.00;95651.97;5095874;28;20201;-73
2022/01/15 05:25:22;;;;;;;10.87;6.93;;;;;;;-3.65;100.00;95655.53;5081292;28;20229;-73
2022/01/15 05:28:08;;;;;;;10.87;7.33;;;;;;;-3.61;100.00;95659.81;5103690;28;20192;-74
2022/01/15 05:30:54;;;;;;;12.97;8.67;;;;;;;-3.69;100.00;95655.44;5094149;28;21018;-73
2022/01/15 05:33:40;;;;;;;15.13;10.00;;;;;;;-3.47;100.00;95652.13;5072831;28;20188;-73
2022/01/15 05:36:26;;;;;;;15.33;10.50;;;;;;;-3.65;100.00;95647.53;5089376;28;20209;-72
2022/01/15 05:39:12;;;;;;;14.73;9.60;;;;;;;-3.73;100.00;95643.91;5082357;28;20204;-73
2022/01/15 05:41:58;;;;;;;16.23;9.60;;;;;;;-3.72;100.00;95651.56;5088617;28;20201;-73
2022/01/15 05:44:44;;;;;;;14.20;9.27;;;;;;;-3.62;100.00;95657.50;5089133;28;20220;-72
2022/01/15 05:47:30;;;;;;;14.60;9.60;;;;;;;-3.71;100.00;95655.03;5088997;28;20201;-72
2022/01/15 05:50:16;;;;;;;12.37;8.57;;;;;;;-3.75;100.00;95652.28;5073481;28;20205;-73
2022/01/15 05:53:02;;;;;;;12.67;8.07;;;;;;;-3.61;100.00;95648.38;5075120;28;20188;-72
2022/01/15 05:55:47;;;;;;;17.93;9.90;;;;;;;-3.57;100.00;95646.56;5084491;28;20242;-73
2022/01/15 05:58:33;;;;;;;14.33;9.60;;;;;;;-3.55;100.00;95658.44;5085490;28;20689;-74
2022/01/15 06:01:20;;;;;;;11.70;7.97;;;;;;;-3.89;100.00;95648.53;5073034;28;20244;-73
2022/01/15 06:04:06;;;;;;;12.60;9.03;;;;;;;-3.85;100.00;95660.81;5087404;28;20213;-73
2022/01/15 06:06:52;;;;;;;16.87;8.47;;;;;;;-3.92;100.00;95667.91;5088504;28;20337;-73
2022/01/15 06:09:38;;;;;;;14.20;9.33;;;;;;;-3.98;100.00;95655.94;5091484;28;20211;-73
2022/01/15 06:12:30;;;;;;;16.37;10.03;;;;;;;-4.02;100.00;95663.09;5093126;28;20658;-72
2022/01/15 06:15:16;;;;;;;15.70;10.10;;;;;;;-3.89;100.00;95681.31;5089336;28;20201;-73
2022/01/15 06:18:02;;;;;;;19.57;10.80;;;;;;;-3.87;100.00;95662.28;5092962;28;20196;-72
2022/01/15 06:20:48;;;;;;;16.43;9.83;;;;;;;-3.71;100.00;95674.47;5078541;28;20193;-73
2022/01/15 06:23:34;;;;;;;17.37;10.10;;;;;;;-3.61;100.00;95662.50;5074947;28;20572;-74
2022/01/15 06:26:20;;;;;;;11.63;7.80;;;;;;;-3.39;100.00;95669.84;5079651;28;20266;-73
2022/01/15 06:29:06;;;;;;;10.47;8.03;;;;;;;-3.50;100.00;95666.19;5079276;28;20666;-73
2022/01/15 06:31:54;;;;;;;11.90;8.27;;;;;;;-3.35;100.00;95662.69;5092448;28;20197;-74
2022/01/15 06:34:39;;;;;;;12.73;9.30;;;;;;;-3.39;100.00;95664.50;5073102;28;20216;-73
2022/01/15 06:37:25;;;;;;;15.43;10.87;;;;;;;-3.25;100.00;95654.13;5071895;28;20196;-73
2022/01/15 06:40:11;;;;;;;14.77;10.17;;;;;;;-3.16;100.00;95657.38;5091854;28;20269;-73
2022/01/15 06:43:00;;;;;;;14.83;10.03;;;;;;;-3.59;100.00;95646.91;5092359;28;20561;-74
2022/01/15 06:45:46;;;;;;;15.57;11.33;;;;;;;-3.35;100.00;95651.22;5088690;28;20224;-73
2022/01/15 06:48:32;;;;;;;17.00;10.47;;;;;;;-3.55;100.00;95652.31;5069777;28;20200;-74
2022/01/15 06:51:17;;;;;;;12.70;9.30;;;;;;;-3.60;100.00;95660.59;5091053;28;20200;-74
2022/01/15 06:54:03;;;;;;;12.67;8.80;;;;;;;-3.74;100.00;95667.19;5064347;28;20285;-73
2022/01/15 06:56:49;;;;;;;12.47;10.03;;;;;;;-3.59;100.00;95660.25;5091445;28;20284;-72
2022/01/15 06:59:35;;;;;;;13.03;9.27;;;;;;;-3.72;100.00;95664.16;5089023;28;20207;-73
2022/01/15 07:02:21;;;;;;;15.43;10.00;;;;;;;-3.55;100.00;95663.78;5092088;28;20197;-74
2022/01/15 07:05:10;;;;;;;17.57;12.40;;;;;;;-2.95;100.00;95651.63;5090937;28;20213;-74
2022/01/15 07:07:56;;;;;;;14.23;10.00;;;;;;;-2.94;100.00;95656.66;5085405;28;20199;-73
2022/01/15 07:10:43;;;;;;;17.50;11.50;;;;;;;-2.80;100.00;95656.91;5076045;28;20207;-75
2022/01/15 07:13:30;;;;;;;19.97;12.60;;;;;;;-2.80;100.00;95658.84;5090520;28;20217;-74
2022/01/15 07:16:16;;;;;;;18.67;12.83;;;;;;;-2.90;100.00;95678.84;5088262;28;20212;-74
2022/01/15 07:19:02;;;;;;;20.43;14.33;;;;;;;-2.43;100.00;95667.91;5088989;28;20769;-75
2022/01/15 07:21:48;;;;;;;28.70;19.30;;;;;;;-2.08;100.00;95662.38;5091453;28;20193;-75
2022/01/15 07:24:34;;;;;;;30.07;18.77;;;;;;;-1.88;100.00;95669.19;5087430;28;20229;-75
2022/01/15 07:27:20;;;;;;;29.80;19.27;;;;;;;-1.75;100.00;95674.00;5091872;28;20239;-74
2022/01/15 07:30:08;;;;;;;28.63;19.27;;;;;;;-1.68;100.00;95676.03;5087004;28;20624;-73
2022/01/15 07:32:54;;;;;;;24.97;17.67;;;;;;;-1.65;100.00;95675.31;5082631;28;20201;-73
2022/01/15 07:35:43;;;;;;;22.30;16.13;;;;;;;-1.71;100.00;95668.69;5089979;28;20212;-74
2022/01/15 07:38:29;;;;;;;23.30;16.80;;;;;;;-1.66;100.00;95676.44;5084801;28;20265;-73
2022/01/15 07:41:15;;;;;;;24.07;15.57;;;;;;;-1.80;100.00;95668.19;5074124;28;20194;-72
2022/01/15 07:44:01;;;;;;;24.13;16.33;;;;;;;-1.78;100.00;95673.97;5075856;28;20273;-73
2022/01/15 07:46:46;;;;;;;23.13;16.80;;;;;;;-1.82;100.00;95673.91;5089738;28;20220;-73
2022/01/15 07:49:32;;;;;;;23.47;15.87;;;;;;;-1.87;100.00;95674.22;5071991;28;20682;-73
2022/01/15 07:52:19;;;;;;;24.27;16.97;;;;;;;-1.87;100.00;95663.50;5090887;28;20196;-75
2022/01/15 07:55:07;;;;;;;23.97;16.70;;;;;;;-1.87;100.00;95671.53;5059158;28;20212;-74
2022/01/15 07:57:56;;;;;;;23.10;16.37;;;;;;;-1.81;100.00;95680.81;5076131;28;20204;-75
2022/01/15 08:00:42;;;;;;;25.10;16.80;;;;;;;-1.83;100.00;95672.34;5085017;28;20236;-75
2022/01/15 08:03:28;;;;;;;31.27;17.13;;;;;;;-1.85;100.00;95671.94;5089259;28;20216;-74
2022/01/15 08:06:14;;;;;;;26.07;17.27;;;;;;;-1.84;100.00;95662.78;5078340;28;20215;-72
2022/01/15 08:09:00;;;;;;;29.73;16.93;;;;;;;-1.74;100.00;95680.13;5086626;28;20199;-73
2022/01/15 08:11:46;;;;;;;27.63;17.03;;;;;;;-1.77;100.00;95662.13;5059284;28;20197;-73
2022/01/15 08:14:32;;;;;;;24.77;16.93;;;;;;;-1.71;100.00;95653.41;5091342;28;20201;-75
2022/01/15 08:17:17;;;;;;;24.43;17.27;;;;;;;-1.60;100.00;95659.72;5066919;28;20193;-73
2022/01/15 08:20:04;;;;;;;28.30;16.63;;;;;;;-1.64;100.00;95656.19;5069635;28;20201;-76
2022/01/15 08:22:51;;;;;;;22.97;16.67;;;;;;;-1.57;100.00;95650.94;5079357;28;20283;-74
2022/01/15 08:25:37;;;;;;;23.77;16.73;;;;;;;-1.50;100.00;95656.41;5077529;28;20221;-74
2022/01/15 08:28:23;;;;;;;22.53;16.83;;;;;;;-1.44;100.00;95646.13;5068387;28;20734;-74
2022/01/15 08:31:09;;;;;;;21.13;15.97;;;;;;;-1.36;100.00;95643.19;5074742;28;20568;-75
2022/01/15 08:33:55;;;;;;;24.23;17.17;;;;;;;-1.23;100.00;95647.22;5072288;28;20665;-75
2022/01/15 08:36:41;;;;;;;22.73;16.57;;;;;;;-1.22;100.00;95623.84;5084225;28;20215;-74
2022/01/15 08:39:27;;;;;;;24.23;17.57;;;;;;;-1.02;100.00;95643.25;5087259;28;20193;-75
2022/01/15 08:42:13;;;;;;;24.20;18.00;;;;;;;-0.95;100.00;95646.03;5080909;28;20197;-75
2022/01/15 08:44:59;;;;;;;23.10;16.63;;;;;;;-0.97;100.00;95632.22;5089129;28;20645;-75
2022/01/15 08:47:45;;;;;;;22.03;17.00;;;;;;;-0.85;100.00;95624.69;5070714;28;20205;-75
2022/01/15 08:50:32;;;;;;;24.77;17.20;;;;;;;-0.80;100.00;95621.69;5091380;28;20653;-74
2022/01/15 08:53:20;;;;;;;24.80;17.10;;;;;;;-0.84;100.00;95612.81;5091195;28;20718;-75
2022/01/15 08:56:07;;;;;;;22.13;15.53;;;;;;;-0.80;100.00;95619.00;5088834;28;20251;-75
2022/01/15 08:58:52;;;;;;;23.37;15.90;;;;;;;-0.71;100.00;95616.03;5076299;28;20559;-74
2022/01/15 09:01:38;;;;;;;21.77;15.60;;;;;;;-0.50;100.00;95618.91;5088792;28;20196;-75
2022/01/15 09:04:24;;;;;;;21.40;15.30;;;;;;;-0.43;100.00;95603.69;5089452;28;20221;-74
2022/01/15 09:07:13;;;;;;;24.70;16.13;;;;;;;-0.31;100.00;95616.03;5089690;28;20193;-75
2022/01/15 09:09:59;;;;;;;24.90;17.33;;;;;;;-0.06;100.00;95612.44;5084834;28;20193;-74
2022/01/15 09:12:45;;;;;;;20.87;16.10;;;;;;;0.24;100.00;95614.19;5085406;28;20189;-74
2022/01/15 09:15:31;;;;;;;18.47;14.87;;;;;;;0.26;100.00;95601.91;5073278;28;20268;-74
2022/01/15 09:18:17;;;;;;;21.03;15.23;;;;;;;0.35;100.00;95606.97;5082453;28;20200;-78
2022/01/15 09:21:03;;;;;;;24.17;16.23;;;;;;;0.37;100.00;95597.41;5090613;28;20192;-75
2022/01/15 09:23:50;;;;;;;23.23;14.93;;;;;;;0.47;100.00;95593.22;5070687;28;20217;-73
2022/01/15 09:32:55;;;;;;;21.87;15.57;;;;;;;0.89;100.00;95596.88;5085359;28;20228;-75
2022/01/15 09:35:41;;;;;;;20.07;15.00;;;;;;;3.42;100.00;95601.38;5070593;28;20947;-75
2022/01/15 09:38:27;;;;;;;18.47;14.43;;;;;;;3.08;100.00;95600.38;5083593;28;20205;-75
2022/01/15 09:41:14;;;;;;;20.13;14.03;;;;;;;4.42;100.00;95586.75;5086448;28;20192;-74
2022/01/15 09:44:01;;;;;;;17.20;12.90;;;;;;;4.26;100.00;95589.97;5084896;28;20724;-75
2022/01/15 09:46:48;;;;;;;17.50;13.57;;;;;;;4.00;100.00;95585.19;5087473;28;20203;-74
2022/01/15 09:49:34;;;;;;;16.07;12.83;;;;;;;3.22;100.00;95586.81;5090644;28;20193;-73
2022/01/15 09:52:19;;;;;;;18.07;13.40;;;;;;;2.98;100.00;95583.06;5079587;28;20261;-74
2022/01/15 09:55:11;;;;;;;17.03;13.43;;;;;;;3.01;100.00;95584.22;5080074;28;20233;-75
2022/01/15 09:57:57;;;;;;;18.97;14.67;;;;;;;2.88;100.00;95583.09;5090677;28;20196;-76
2022/01/15 10:00:44;;;;;;;21.10;15.03;;;;;;;2.45;100.00;95579.75;5089579;28;20212;-75
2022/01/15 10:03:30;;;;;;;18.53;14.47;;;;;;;2.11;100.00;95573.25;5079031;28;20674;-74
2022/01/15 10:06:16;;;;;;;20.13;14.57;;;;;;;1.84;100.00;95580.97;5088196;28;20222;-75
2022/01/15 10:09:09;;;;;;;19.33;14.43;;;;;;;1.79;100.00;95559.81;5091664;28;20211;-74
2022/01/15 10:11:54;;;;;;;20.77;14.50;;;;;;;1.73;100.00;95555.94;5073430;28;20197;-75
2022/01/15 10:14:42;;;;;;;16.83;14.13;;;;;;;1.89;100.00;95566.31;5081487;28;20209;-74
2022/01/15 10:17:33;;;;;;;21.00;15.17;;;;;;;2.01;100.00;95558.66;5069573;28;20202;-76
2022/01/15 10:20:22;;;;;;;21.53;14.87;;;;;;;2.05;100.00;95555.94;5094113;28;20238;-74
2022/01/15 10:23:14;;;;;;;20.23;14.17;;;;;;;2.20;100.00;95565.56;5089355;28;20284;-74
2022/01/15 10:26:16;;;;;;;18.10;14.47;;;;;;;2.30;100.00;95560.16;5090091;28;20236;-75
2022/01/15 10:29:07;;;;;;;20.80;15.20;;;;;;;2.34;100.00;95544.72;5079837;28;20212;-75
2022/01/15 10:31:53;;;;;;;22.07;16.20;;;;;;;2.26;100.00;95545.91;5089569;28;20232;-73
2022/01/15 10:34:42;;;;;;;20.07;15.77;;;;;;;2.17;100.00;95532.06;5076315;28;20256;-74
2022/01/15 10:37:37;;;;;;;18.83;14.73;;;;;;;2.15;100.00;95552.47;5072000;28;20212;-74
2022/01/15 10:40:38;;;;;;;20.33;15.17;;;;;;;2.12;100.00;95542.47;5090739;28;20211;-75
2022/01/15 10:43:34;;;;;;;16.63;12.63;;;;;;;2.38;100.00;95545.50;5091019;28;20228;-74
2022/01/15 10:46:32;;;;;;;17.77;12.10;;;;;;;2.34;100.00;95541.28;5086220;28;20308;-74
2022/01/15 10:49:23;;;;;;;20.80;13.23;;;;;;;2.26;100.00;95524.34;5089711;28;20193;-74
2022/01/15 10:52:18;;;;;;;28.10;17.70;;;;;;;2.24;100.00;95534.75;5076013;28;20193;-72
2022/01/15 10:55:08;;;;;;;28.50;17.47;;;;;;;2.34;100.00;95533.19;5092278;28;20704;-72
2022/01/15 10:58:00;;;;;;;36.00;20.77;;;;;;;2.36;100.00;95528.16;5076758;28;20649;-73
2022/01/15 11:00:48;;;;;;;22.63;14.90;;;;;;;2.22;100.00;95520.13;5090130;28;20289;-73
2022/01/15 11:03:40;;;;;;;19.03;12.77;;;;;;;2.21;100.00;95519.34;5076712;28;20205;-74
2022/01/15 11:06:37;;;;;;;21.50;13.37;;;;;;;2.32;100.00;95514.69;5078989;28;20253;-72
2022/01/15 11:09:34;;;;;;;18.63;13.07;;;;;;;2.36;100.00;95506.59;5091245;28;20239;-73
2022/01/15 11:12:26;;;;;;;14.37;10.13;;;;;;;2.42;100.00;95515.84;5079278;28;20193;-74
2022/01/15 11:15:12;;;;;;;11.67;8.93;;;;;;;2.41;100.00;95500.81;5088929;28;20775;-76
2022/01/15 11:18:00;;;;;;;13.80;9.17;;;;;;;2.32;100.00;95501.22;5077404;28;20205;-76
2022/01/15 11:20:49;;;;;;;12.93;9.53;;;;;;;2.31;100.00;95493.53;5064627;28;20700;-73
2022/01/15 11:23:38;;;;;;;14.80;10.10;;;;;;;2.24;100.00;95493.56;5060100;28;20208;-73
2022/01/15 11:26:27;;;;;;;14.37;9.20;;;;;;;2.34;100.00;95492.78;5085471;28;20277;-74
2022/01/15 11:29:13;;;;;;;13.73;10.60;;;;;;;2.41;100.00;95490.03;5077730;28;20239;-74
2022/01/15 11:32:01;;;;;;;14.20;10.03;;;;;;;2.44;100.00;95487.31;5073258;28;20193;-75
2022/01/15 11:35:02;;;;;;;16.67;9.60;;;;;;;2.52;100.00;95488.06;5089492;28;20682;-74
2022/01/15 11:37:52;;;;;;;16.30;11.33;;;;;;;2.42;100.00;95484.28;5081013;28;20688;-74
2022/01/15 11:40:48;;;;;;;13.63;10.27;;;;;;;2.64;100.00;95476.09;5077338;28;20554;-75
2022/01/15 11:43:39;;;;;;;17.70;11.53;;;;;;;2.46;100.00;95482.31;5090034;28;20216;-74
2022/01/15 11:46:25;;;;;;;16.13;12.37;;;;;;;2.63;100.00;95485.34;5071276;28;20789;-74
2022/01/15 11:49:31;;;;;;;19.73;13.30;;;;;;;2.61;100.00;95479.56;5087292;28;20201;-73
2022/01/15 11:52:22;;;;;;;23.90;17.03;;;;;;;2.69;100.00;95473.75;5088146;28;20268;-73
2022/01/15 11:55:35;;;;;;;25.27;16.27;;;;;;;2.93;100.00;95467.47;5074137;28;20228;-74
2022/01/15 11:58:33;;;;;;;23.20;14.53;;;;;;;2.94;100.00;95470.91;5077852;28;20282;-74
2022/01/15 12:02:01;;;;;;;22.00;14.17;;;;;;;3.01;100.00;95487.84;5075223;28;20209;-76
2022/01/15 12:05:45;;;;;;;18.57;13.00;;;;;;;2.97;100.00;95456.66;5093318;28;20595;-75
2022/01/15 12:08:33;;;;;;;18.37;13.83;;;;;;;2.92;100.00;95457.09;5013321;28;20199;-74
2022/01/15 12:11:32;;;;;;;18.13;12.90;;;;;;;2.81;100.00;95451.75;5034761;28;20220;-76
2022/01/15 12:14:59;;;;;;;20.57;13.83;;;;;;;2.93;100.00;95453.22;5091286;28;20212;-74
2022/01/15 12:18:18;;;;;;;17.37;12.70;;;;;;;2.89;100.00;95453.22;5086965;28;20196;-76
2022/01/15 12:24:53;;;;;;;14.97;12.47;;;;;;;2.75;100.00;95439.06;5088152;28;20239;-74
2022/01/15 12:27:41;;;;;;;17.00;12.83;;;;;;;2.89;100.00;95444.34;5074255;28;20201;-77
2022/01/15 12:30:33;;;;;;;16.30;12.13;;;;;;;2.75;100.00;95436.38;5091317;28;20197;-73
2022/01/15 12:33:20;;;;;;;15.53;12.30;;;;;;;2.75;100.00;95429.03;5072666;28;20204;-75
2022/01/15 12:36:06;;;;;;;20.97;12.90;;;;;;;2.93;100.00;95428.94;5071739;28;20741;-73
2022/01/15 12:38:53;;;;;;;18.80;13.83;;;;;;;2.98;100.00;95415.03;5086074;28;20204;-73
2022/01/15 12:41:51;;;;;;;16.83;13.20;;;;;;;2.89;100.00;95422.78;5074921;28;20600;-74
2022/01/15 12:44:51;;;;;;;23.07;16.47;;;;;;;2.85;100.00;95401.22;5086914;28;20225;-73
2022/01/15 12:47:46;;;;;;;24.87;18.60;;;;;;;2.76;100.00;95403.59;5072156;28;20220;-74
2022/01/15 12:51:03;;;;;;;22.90;18.40;;;;;;;2.62;100.00;95408.28;5086301;28;20216;-72
2022/01/15 12:53:53;;;;;;;23.87;17.33;;;;;;;2.65;100.00;95408.28;5084598;28;20192;-74
2022/01/15 12:56:39;;;;;;;24.10;17.23;;;;;;;2.62;100.00;95400.22;5076260;28;20660;-75
2022/01/15 12:59:28;;;;;;;24.77;18.07;;;;;;;2.57;100.00;95406.00;5077228;28;20938;-74
2022/01/15 13:02:14;;;;;;;30.27;18.00;;;;;;;2.49;100.00;95400.66;5088126;28;20240;-74
2022/01/15 13:05:00;;;;;;;26.40;17.90;;;;;;;2.36;100.00;95396.09;5088571;28;20771;-75
2022/01/15 13:07:58;;;;;;;21.93;16.27;;;;;;;2.18;100.00;95396.19;5060724;28;20212;-76
2022/01/15 13:10:57;;;;;;;21.07;14.47;;;;;;;1.90;100.00;95401.66;5085591;28;20669;-73
2022/01/15 13:13:45;;;;;;;19.30;13.87;;;;;;;1.82;100.00;95394.00;5087161;28;20189;-75
2022/01/15 13:16:32;;;;;;;21.73;13.97;;;;;;;1.77;100.00;95392.47;5084963;28;20224;-73
2022/01/15 13:19:18;;;;;;;22.30;15.67;;;;;;;1.57;100.00;95390.59;5089155;28;20200;-74
2022/01/15 13:22:04;;;;;;;19.40;13.93;;;;;;;1.45;100.00;95390.97;5085574;28;20734;-73
2022/01/15 13:24:58;;;;;;;21.63;14.60;;;;;;;1.39;100.00;95396.00;5088837;28;20595;-72
2022/01/15 13:27:44;;;;;;;20.73;14.00;;;;;;;1.42;100.00;95391.75;5085876;28;20197;-74